Time;durP1;ratioP1;P1;durP2;ratioP2;P2;SDS_P1;SDS_P2;PMS_P1;PMS_P2;Temp;Humidity;BMP_temperature;BMP_pressure;BME280_temperature;BME280_humidity;BME280_pressure;Samples;Min_cycle;Max_cycle;Signal;HPM_P1;HPM_P2
2022/07/21 00:00:47;;;;;;;;;;;18.90;99.90;;;;;;4916021;29;19914;-77
2022/07/21 00:03:13;;;;;;;;;;;18.90;99.90;;;;;;4944578;29;20017;-76
2022/07/21 00:05:38;;;;;;;;;;;18.90;99.90;;;;;;4931249;29;19910;-76
2022/07/21 00:08:04;;;;;;;;;;;18.90;99.90;;;;;;4945958;29;19918;-77
2022/07/21 00:10:30;;;;;;;;;;;18.80;99.90;;;;;;4931119;29;19918;-76
2022/07/21 00:12:56;;;;;;;;;;;18.70;99.90;;;;;;4941660;29;20119;-76
2022/07/21 00:15:23;;;;;;;;;;;18.60;99.90;;;;;;4923992;29;19915;-77
2022/07/21 00:17:48;;;;;;;;;;;18.40;99.90;;;;;;4927222;29;19950;-77
2022/07/21 00:20:15;;;;;;;;;;;18.40;99.90;;;;;;4926439;29;19954;-77
2022/07/21 00:22:40;;;;;;;;;;;18.30;99.90;;;;;;4908043;29;19978;-77
2022/07/21 00:25:06;;;;;;;;;;;18.20;99.90;;;;;;4924365;29;20280;-77
2022/07/21 00:27:32;;;;;;;;;;;18.10;99.90;;;;;;4928172;29;19974;-78
2022/07/21 00:29:58;;;;;;;;;;;18.00;99.90;;;;;;4939243;29;20334;-77
2022/07/21 00:32:23;;;;;;;;;;;18.00;99.90;;;;;;4931178;29;20191;-77
2022/07/21 00:34:49;;;;;;;;;;;18.00;99.90;;;;;;4929448;29;19914;-77
2022/07/21 00:37:14;;;;;;;;;;;18.00;99.90;;;;;;4929567;29;19915;-77
2022/07/21 00:39:40;;;;;;;;;;;17.90;99.90;;;;;;4921192;29;19919;-78
2022/07/21 00:42:06;;;;;;;;;;;17.80;99.90;;;;;;4917910;29;19961;-78
2022/07/21 00:44:31;;;;;;;;;;;17.80;99.90;;;;;;4935593;29;19950;-77
2022/07/21 00:46:57;;;;;;;;;;;17.80;99.90;;;;;;4943285;29;19919;-77
2022/07/21 00:49:24;;;;;;;;;;;17.80;99.90;;;;;;4932196;29;20009;-77
2022/07/21 00:51:50;;;;;;;;;;;17.70;99.90;;;;;;4929681;29;19922;-78
2022/07/21 00:54:16;;;;;;;;;;;17.70;99.90;;;;;;4944223;29;19925;-79
2022/07/21 00:56:43;;;;;;;;;;;17.70;99.90;;;;;;4934228;29;19915;-78
2022/07/21 00:59:09;;;;;;;;;;;17.70;99.90;;;;;;4920575;29;20022;-79
2022/07/21 01:01:35;;;;;;;;;;;17.70;99.90;;;;;;4915547;29;19978;-79
2022/07/21 01:04:00;;;;;;;;;;;17.70;99.90;;;;;;4927989;29;19918;-77
2022/07/21 01:06:26;;;;;;;;;;;17.70;99.90;;;;;;4944536;29;19950;-75
2022/07/21 01:08:53;;;;;;;;;;;17.60;99.90;;;;;;4935243;29;19940;-77
2022/07/21 01:11:20;;;;;;;;;;;17.60;99.90;;;;;;4928314;29;19969;-77
2022/07/21 01:13:46;;;;;;;;;;;17.60;99.90;;;;;;4929734;29;19970;-77
2022/07/21 01:16:11;;;;;;;;;;;17.60;99.90;;;;;;4932629;29;19921;-77
2022/07/21 01:18:37;;;;;;;;;;;17.60;99.90;;;;;;4941936;29;19926;-77
2022/07/21 01:21:07;;;;;;;;;;;17.60;99.90;;;;;;4939917;29;19914;-77
2022/07/21 01:23:32;;;;;;;;;;;17.60;99.90;;;;;;4937312;29;20335;-77
2022/07/21 01:25:58;;;;;;;;;;;17.60;99.90;;;;;;4921176;29;19915;-79
2022/07/21 01:28:23;;;;;;;;;;;17.50;99.90;;;;;;4939068;29;19990;-76
2022/07/21 01:30:50;;;;;;;;;;;17.50;99.90;;;;;;4937854;29;19915;-77
2022/07/21 01:33:16;;;;;;;;;;;17.50;99.90;;;;;;4910325;29;19994;-77
2022/07/21 01:35:41;;;;;;;;;;;17.50;99.90;;;;;;4928696;29;19911;-76
2022/07/21 01:41:28;;;;;;;;;;;17.50;99.90;;;;;;4920230;29;20350;-77
2022/07/21 01:43:43;;;;;;;;;;;17.40;99.90;;;;;;4942449;29;19945;-77
2022/07/21 01:46:12;;;;;;;;;;;17.40;99.90;;;;;;4934288;29;20359;-76
2022/07/21 01:48:44;;;;;;;;;;;17.50;99.90;;;;;;4930105;29;20297;-77
2022/07/21 01:51:10;;;;;;;;;;;17.50;99.90;;;;;;4932061;29;19962;-76
2022/07/21 01:53:35;;;;;;;;;;;17.50;99.90;;;;;;4942014;29;19922;-77
2022/07/21 01:56:01;;;;;;;;;;;17.50;99.90;;;;;;4945856;29;20430;-77
2022/07/21 01:58:26;;;;;;;;;;;17.50;99.90;;;;;;4924638;29;19914;-77
2022/07/21 02:00:52;;;;;;;;;;;17.50;99.90;;;;;;4943075;29;19929;-77
2022/07/21 02:03:17;;;;;;;;;;;17.50;99.90;;;;;;4947637;29;19946;-77
2022/07/21 02:05:43;;;;;;;;;;;17.40;99.90;;;;;;4947116;29;19921;-77
2022/07/21 02:08:08;;;;;;;;;;;17.50;99.90;;;;;;4926937;29;19946;-77
2022/07/21 02:10:35;;;;;;;;;;;17.40;99.90;;;;;;4920806;28;19914;-77
2022/07/21 02:13:02;;;;;;;;;;;17.50;99.90;;;;;;4947483;29;20343;-77
2022/07/21 02:15:28;;;;;;;;;;;17.40;99.90;;;;;;4923654;29;20168;-78
2022/07/21 02:17:53;;;;;;;;;;;17.40;99.90;;;;;;4922351;29;19942;-78
2022/07/21 02:20:19;;;;;;;;;;;17.40;99.90;;;;;;4946867;29;19914;-79
2022/07/21 02:22:45;;;;;;;;;;;17.40;99.90;;;;;;4941648;29;20311;-77
2022/07/21 02:25:11;;;;;;;;;;;17.40;99.90;;;;;;4936819;29;19915;-78
2022/07/21 02:27:36;;;;;;;;;;;17.30;99.90;;;;;;4922408;29;20288;-78
2022/07/21 02:30:02;;;;;;;;;;;17.30;99.90;;;;;;4942984;29;19949;-77
2022/07/21 02:32:28;;;;;;;;;;;17.30;99.90;;;;;;4935873;29;20401;-77
2022/07/21 02:34:53;;;;;;;;;;;17.40;99.90;;;;;;4944526;29;19935;-77
2022/07/21 02:37:19;;;;;;;;;;;17.30;99.90;;;;;;4923493;29;19977;-77
2022/07/21 02:39:45;;;;;;;;;;;17.30;99.90;;;;;;4942596;29;19918;-77
2022/07/21 02:42:10;;;;;;;;;;;17.30;99.90;;;;;;4938289;29;19914;-76
2022/07/21 02:44:36;;;;;;;;;;;17.20;99.90;;;;;;4923314;29;19939;-77
2022/07/21 02:47:02;;;;;;;;;;;17.20;99.90;;;;;;4928596;29;19945;-76
2022/07/21 02:49:27;;;;;;;;;;;17.20;99.90;;;;;;4933615;29;20374;-77
2022/07/21 02:51:53;;;;;;;;;;;17.10;99.90;;;;;;4947484;29;19997;-77
2022/07/21 02:54:18;;;;;;;;;;;17.10;99.90;;;;;;4939940;29;19914;-77
2022/07/21 02:56:44;;;;;;;;;;;17.00;99.90;;;;;;4927484;29;19918;-75
2022/07/21 02:59:10;;;;;;;;;;;16.90;99.90;;;;;;4928298;29;20025;-76
2022/07/21 03:01:35;;;;;;;;;;;16.90;99.90;;;;;;4944806;29;20474;-76
2022/07/21 03:04:01;;;;;;;;;;;16.80;99.90;;;;;;4935531;29;19921;-76
2022/07/21 03:06:26;;;;;;;;;;;16.70;99.90;;;;;;4920414;29;20358;-76
2022/07/21 03:08:52;;;;;;;;;;;16.60;99.90;;;;;;4927234;29;19915;-77
2022/07/21 03:11:17;;;;;;;;;;;16.60;99.90;;;;;;4927453;29;19910;-76
2022/07/21 03:13:43;;;;;;;;;;;16.40;99.90;;;;;;4920098;29;19919;-76
2022/07/21 03:16:08;;;;;;;;;;;16.40;99.90;;;;;;4908264;29;19955;-76
2022/07/21 03:18:35;;;;;;;;;;;16.40;99.90;;;;;;4934182;29;19941;-77
2022/07/21 03:21:00;;;;;;;;;;;16.40;99.90;;;;;;4944106;28;20382;-76
2022/07/21 03:23:26;;;;;;;;;;;16.40;99.90;;;;;;4930911;29;19921;-77
2022/07/21 03:25:51;;;;;;;;;;;16.40;99.90;;;;;;4927661;29;20283;-76
2022/07/21 03:28:17;;;;;;;;;;;16.40;99.90;;;;;;4926464;29;19973;-76
2022/07/21 03:30:43;;;;;;;;;;;16.30;99.90;;;;;;4927102;29;19918;-76
2022/07/21 03:33:08;;;;;;;;;;;16.30;99.90;;;;;;4930485;29;19969;-76
2022/07/21 03:35:35;;;;;;;;;;;16.30;99.90;;;;;;4946076;29;19910;-77
2022/07/21 03:38:01;;;;;;;;;;;16.30;99.90;;;;;;4943758;29;20358;-77
2022/07/21 03:40:28;;;;;;;;;;;16.30;99.90;;;;;;4936541;29;20015;-76
2022/07/21 03:42:54;;;;;;;;;;;16.30;99.90;;;;;;4928580;29;20331;-76
2022/07/21 03:45:20;;;;;;;;;;;16.40;99.90;;;;;;4926803;29;20066;-76
2022/07/21 03:47:45;;;;;;;;;;;16.40;99.90;;;;;;4939981;29;20005;-76
2022/07/21 03:50:12;;;;;;;;;;;16.40;99.90;;;;;;4923909;29;20347;-76
2022/07/21 03:52:37;;;;;;;;;;;16.50;99.90;;;;;;4937366;29;19930;-76
2022/07/21 03:55:09;;;;;;;;;;;16.50;99.90;;;;;;4926369;29;19918;-76
2022/07/21 03:57:39;;;;;;;;;;;16.50;99.90;;;;;;4920909;29;19926;-76
2022/07/21 04:00:06;;;;;;;;;;;16.60;99.90;;;;;;4923694;29;20674;-77
2022/07/21 04:02:32;;;;;;;;;;;16.60;99.90;;;;;;4923040;29;19915;-76
2022/07/21 04:04:58;;;;;;;;;;;16.60;99.90;;;;;;4923824;29;20355;-77
2022/07/21 04:07:23;;;;;;;;;;;16.60;99.90;;;;;;4925946;29;19910;-76
2022/07/21 04:09:49;;;;;;;;;;;16.50;99.90;;;;;;4919842;29;19922;-77
2022/07/21 04:12:14;;;;;;;;;;;16.60;99.90;;;;;;4915653;29;19929;-77
2022/07/21 04:14:40;;;;;;;;;;;16.60;99.90;;;;;;4934110;29;19914;-77
2022/07/21 04:17:05;;;;;;;;;;;16.60;99.90;;;;;;4945363;29;19914;-77
2022/07/21 04:19:31;;;;;;;;;;;16.60;99.90;;;;;;4942185;29;19918;-77
2022/07/21 04:21:57;;;;;;;;;;;16.60;99.90;;;;;;4946141;29;19915;-76
2022/07/21 04:24:22;;;;;;;;;;;16.60;99.90;;;;;;4912099;29;19915;-76
2022/07/21 04:26:48;;;;;;;;;;;16.60;99.90;;;;;;4920782;29;20426;-77
2022/07/21 04:29:14;;;;;;;;;;;16.50;99.90;;;;;;4942436;29;19929;-75
2022/07/21 04:31:39;;;;;;;;;;;16.50;99.90;;;;;;4940108;28;20400;-76
2022/07/21 04:34:05;;;;;;;;;;;16.50;99.90;;;;;;4928434;29;19918;-76
2022/07/21 04:36:30;;;;;;;;;;;16.50;99.90;;;;;;4909949;29;20048;-77
2022/07/21 04:38:56;;;;;;;;;;;16.50;99.90;;;;;;4927923;29;19915;-77
2022/07/21 04:41:21;;;;;;;;;;;16.50;99.90;;;;;;4911249;29;19911;-77
2022/07/21 04:43:47;;;;;;;;;;;16.50;99.90;;;;;;4929125;29;19921;-76
2022/07/21 04:46:12;;;;;;;;;;;16.50;99.90;;;;;;4929511;29;20279;-76
2022/07/21 04:48:38;;;;;;;;;;;16.50;99.90;;;;;;4924907;29;20054;-76
2022/07/21 04:51:03;;;;;;;;;;;16.50;99.90;;;;;;4927870;29;20342;-77
2022/07/21 04:53:29;;;;;;;;;;;16.50;99.90;;;;;;4927186;29;20379;-76
2022/07/21 04:55:54;;;;;;;;;;;16.50;99.90;;;;;;4929558;29;20059;-77
2022/07/21 04:58:20;;;;;;;;;;;16.50;99.90;;;;;;4926690;29;19925;-76
2022/07/21 05:00:46;;;;;;;;;;;16.50;99.90;;;;;;4928978;29;20392;-77
2022/07/21 05:03:13;;;;;;;;;;;16.50;99.90;;;;;;4922439;29;19990;-77
2022/07/21 05:05:38;;;;;;;;;;;16.50;99.90;;;;;;4927496;29;19926;-77
2022/07/21 05:08:04;;;;;;;;;;;16.50;99.90;;;;;;4926054;29;19914;-76
2022/07/21 05:10:30;;;;;;;;;;;16.60;99.90;;;;;;4928118;29;20433;-75
2022/07/21 05:12:55;;;;;;;;;;;16.70;99.90;;;;;;4927564;29;19923;-79
2022/07/21 05:15:21;;;;;;;;;;;16.60;99.90;;;;;;4927556;29;19915;-79
2022/07/21 05:17:46;;;;;;;;;;;16.70;99.90;;;;;;4929978;29;20030;-77
2022/07/21 05:20:12;;;;;;;;;;;16.70;99.90;;;;;;4926760;29;19918;-79
2022/07/21 05:22:38;;;;;;;;;;;16.70;99.90;;;;;;4926711;29;19919;-79
2022/07/21 05:25:04;;;;;;;;;;;16.80;99.90;;;;;;4925412;29;19962;-79
2022/07/21 05:27:29;;;;;;;;;;;16.80;99.90;;;;;;4930406;29;19918;-78
2022/07/21 05:29:55;;;;;;;;;;;16.80;99.90;;;;;;4927828;29;19915;-78
2022/07/21 05:32:21;;;;;;;;;;;16.90;99.90;;;;;;4931562;29;20260;-79
2022/07/21 05:34:46;;;;;;;;;;;16.90;99.90;;;;;;4947652;29;20150;-79
2022/07/21 05:37:12;;;;;;;;;;;16.90;99.90;;;;;;4924446;29;20282;-78
2022/07/21 05:39:37;;;;;;;;;;;17.00;99.90;;;;;;4916847;29;20396;-79
2022/07/21 05:42:03;;;;;;;;;;;16.90;99.90;;;;;;4917522;29;19922;-79
2022/07/21 05:44:29;;;;;;;;;;;17.00;99.90;;;;;;4917448;29;19926;-79
2022/07/21 05:46:54;;;;;;;;;;;17.00;99.90;;;;;;4909325;29;19938;-78
2022/07/21 05:49:20;;;;;;;;;;;17.00;99.90;;;;;;4931242;29;19921;-78
2022/07/21 05:51:45;;;;;;;;;;;17.00;99.90;;;;;;4920792;29;20350;-79
2022/07/21 05:54:11;;;;;;;;;;;17.00;99.90;;;;;;4920507;29;19915;-78
2022/07/21 05:56:36;;;;;;;;;;;16.90;99.90;;;;;;4919254;29;19978;-79
2022/07/21 05:59:02;;;;;;;;;;;16.90;99.90;;;;;;4932759;29;19914;-78
2022/07/21 06:01:27;;;;;;;;;;;16.90;99.90;;;;;;4942192;28;19918;-79
2022/07/21 06:03:53;;;;;;;;;;;16.90;99.90;;;;;;4928884;29;20218;-75
2022/07/21 06:06:19;;;;;;;;;;;17.00;99.90;;;;;;4925667;29;19969;-75
2022/07/21 06:08:45;;;;;;;;;;;17.00;99.90;;;;;;4927494;29;19914;-75
2022/07/21 06:11:12;;;;;;;;;;;17.10;99.90;;;;;;4941599;29;20147;-75
2022/07/21 06:13:38;;;;;;;;;;;17.20;99.90;;;;;;4928682;29;19934;-75
2022/07/21 06:16:04;;;;;;;;;;;17.20;99.90;;;;;;4940864;29;19914;-75
2022/07/21 06:18:29;;;;;;;;;;;17.30;99.90;;;;;;4936498;29;19956;-75
2022/07/21 06:20:55;;;;;;;;;;;17.40;99.90;;;;;;4927548;29;20005;-75
2022/07/21 06:23:21;;;;;;;;;;;17.40;99.90;;;;;;4912668;29;19918;-77
2022/07/21 06:25:46;;;;;;;;;;;17.50;99.90;;;;;;4906676;29;20267;-75
2022/07/21 06:28:15;;;;;;;;;;;17.60;99.90;;;;;;4906672;29;20519;-74
2022/07/21 06:30:40;;;;;;;;;;;17.60;99.90;;;;;;4908059;29;20058;-74
2022/07/21 06:33:06;;;;;;;;;;;17.60;99.90;;;;;;4909172;29;20013;-74
2022/07/21 06:35:31;;;;;;;;;;;17.70;99.90;;;;;;4906596;29;19915;-74
2022/07/21 06:37:57;;;;;;;;;;;17.70;99.90;;;;;;4909758;29;20227;-74
2022/07/21 06:40:22;;;;;;;;;;;17.80;99.90;;;;;;4920511;29;19973;-75
2022/07/21 06:42:48;;;;;;;;;;;18.00;99.90;;;;;;4918691;29;19941;-75
2022/07/21 06:45:14;;;;;;;;;;;18.10;99.90;;;;;;4923852;29;19941;-75
2022/07/21 06:47:40;;;;;;;;;;;18.20;99.90;;;;;;4903446;29;19950;-74
2022/07/21 06:50:06;;;;;;;;;;;18.30;99.90;;;;;;4918760;29;19914;-75
2022/07/21 06:52:32;;;;;;;;;;;18.40;99.90;;;;;;4906942;29;19927;-75
2022/07/21 06:54:58;;;;;;;;;;;18.50;99.90;;;;;;4912192;29;19990;-74
2022/07/21 06:57:23;;;;;;;;;;;18.50;99.90;;;;;;4931758;29;20394;-75
2022/07/21 06:59:49;;;;;;;;;;;18.60;99.90;;;;;;4916318;29;19914;-74
2022/07/21 07:02:14;;;;;;;;;;;18.70;99.90;;;;;;4917141;29;19954;-74
2022/07/21 07:04:40;;;;;;;;;;;18.70;99.90;;;;;;4911355;29;20418;-75
2022/07/21 07:07:06;;;;;;;;;;;18.80;99.90;;;;;;4923880;29;19946;-74
2022/07/21 07:09:31;;;;;;;;;;;18.90;99.90;;;;;;4915970;29;19914;-75
2022/07/21 07:12:03;;;;;;;;;;;19.00;99.90;;;;;;4923047;29;19948;-74
2022/07/21 07:14:33;;;;;;;;;;;19.00;99.90;;;;;;4918965;29;19970;-75
2022/07/21 07:16:59;;;;;;;;;;;19.10;99.90;;;;;;4916929;29;20227;-74
2022/07/21 07:19:24;;;;;;;;;;;19.20;99.90;;;;;;4894245;29;19915;-75
2022/07/21 07:21:50;;;;;;;;;;;19.40;99.90;;;;;;4911991;29;19946;-75
2022/07/21 07:24:16;;;;;;;;;;;19.50;99.90;;;;;;4906861;29;20030;-75
2022/07/21 07:26:42;;;;;;;;;;;19.70;99.90;;;;;;4914906;29;19915;-75
2022/07/21 07:29:07;;;;;;;;;;;19.70;99.90;;;;;;4913940;29;20290;-75
2022/07/21 07:31:33;;;;;;;;;;;19.90;99.90;;;;;;4916234;29;20458;-75
2022/07/21 07:33:58;;;;;;;;;;;19.90;99.90;;;;;;4912400;29;20305;-75
2022/07/21 07:36:25;;;;;;;;;;;20.00;99.90;;;;;;4912996;29;19919;-75
2022/07/21 07:38:51;;;;;;;;;;;20.30;99.90;;;;;;4906999;29;20581;-75
2022/07/21 07:41:17;;;;;;;;;;;21.20;99.90;;;;;;4917058;29;20025;-75
2022/07/21 07:43:42;;;;;;;;;;;21.20;99.90;;;;;;4901258;29;20361;-74
2022/07/21 07:46:10;;;;;;;;;;;21.70;99.90;;;;;;4897506;29;19925;-74
2022/07/21 07:48:36;;;;;;;;;;;21.70;99.90;;;;;;4901247;29;19915;-75
2022/07/21 07:51:02;;;;;;;;;;;22.20;99.90;;;;;;4911190;29;19937;-74
2022/07/21 07:53:27;;;;;;;;;;;22.30;99.90;;;;;;4915262;29;20561;-74
2022/07/21 07:55:53;;;;;;;;;;;24.10;99.90;;;;;;4897216;29;19969;-74
2022/07/21 07:58:18;;;;;;;;;;;27.50;99.90;;;;;;4918947;29;19992;-75
2022/07/21 08:00:44;;;;;;;;;;;29.80;90.50;;;;;;4890965;29;20371;-75
2022/07/21 08:03:09;;;;;;;;;;;31.50;74.00;;;;;;4914337;29;19966;-74
2022/07/21 08:05:35;;;;;;;;;;;32.90;60.80;;;;;;4906013;29;20063;-75
2022/07/21 08:08:00;;;;;;;;;;;33.90;58.10;;;;;;4920669;28;20367;-75
2022/07/21 08:10:26;;;;;;;;;;;35.10;50.60;;;;;;4908726;29;20438;-75
2022/07/21 08:12:51;;;;;;;;;;;35.30;50.30;;;;;;4907306;29;19949;-75
2022/07/21 08:16:39;;;;;;;;;;;36.40;45.60;;;;;;5064845;27;19946;-77
2022/07/21 08:19:05;;;;;;;;;;;36.80;46.30;;;;;;5066450;28;19923;-76
2022/07/21 08:21:32;;;;;;;;;;;36.40;44.70;;;;;;5060701;28;19920;-76
2022/07/21 08:23:57;;;;;;;;;;;37.80;42.70;;;;;;5060233;28;20367;-76
2022/07/21 08:26:24;;;;;;;;;;;36.60;44.00;;;;;;5061019;28;19945;-75
2022/07/21 08:28:50;;;;;;;;;;;36.40;42.60;;;;;;5063107;28;20043;-76
2022/07/21 08:31:15;;;;;;;;;;;36.90;41.90;;;;;;5072991;28;20472;-76
2022/07/21 08:33:41;;;;;;;;;;;37.30;41.50;;;;;;5070554;28;19917;-75
2022/07/21 08:36:06;;;;;;;;;;;37.70;41.90;;;;;;5073954;28;19925;-76
2022/07/21 08:38:32;;;;;;;;;;;38.40;40.30;;;;;;5066475;28;19913;-76
2022/07/21 08:40:57;;;;;;;;;;;38.70;39.20;;;;;;5065565;28;20875;-76
2022/07/21 08:43:23;;;;;;;;;;;38.90;39.50;;;;;;5072441;28;20003;-76
2022/07/21 08:45:49;;;;;;;;;;;39.50;38.40;;;;;;5074991;28;19991;-74
2022/07/21 08:48:19;;;;;;;;;;;38.30;38.90;;;;;;5074889;28;20314;-73
2022/07/21 08:50:44;;;;;;;;;;;37.40;38.90;;;;;;5073109;28;20485;-74
2022/07/21 08:53:10;;;;;;;;;;;38.10;41.90;;;;;;5093960;28;20443;-74
2022/07/21 08:55:38;;;;;;;;;;;38.30;39.70;;;;;;5057211;28;20319;-71
2022/07/21 08:58:04;;;;;;;;;;;38.90;39.80;;;;;;5093928;28;19919;-74
2022/07/21 09:00:29;;;;;;;;;;;38.80;39.30;;;;;;5063884;28;20384;-73
2022/07/21 09:03:08;;;;;;;;;;;38.90;37.60;;;;;;5062149;28;19940;-73
2022/07/21 09:05:34;;;;;;;;;;;38.50;39.80;;;;;;5066173;28;20038;-73
2022/07/21 09:07:59;;;;;;;;;;;37.10;38.40;;;;;;4363523;27;10000699;-73
2022/07/21 09:10:26;;;;;;;;;;;37.90;39.90;;;;;;5065788;28;19917;-74
2022/07/21 09:12:53;;;;;;;;;;;37.50;39.10;;;;;;5070447;28;19916;-73
2022/07/21 09:15:20;;;;;;;;;;;36.80;36.90;;;;;;5057378;28;19924;-73
2022/07/21 09:17:45;;;;;;;;;;;36.80;43.50;;;;;;5055879;28;19928;-73
2022/07/21 09:20:21;;;;;;;;;;;36.90;41.30;;;;;;5061210;28;19924;-73
2022/07/21 09:23:06;;;;;;;;;;;37.50;41.00;;;;;;5067334;28;19924;-73
2022/07/21 09:25:37;;;;;;;;;;;37.50;41.20;;;;;;5059119;28;19916;-73
2022/07/21 09:28:07;;;;;;;;;;;37.30;38.10;;;;;;5052374;28;19970;-73
2022/07/21 09:30:46;;;;;;;;;;;37.70;40.60;;;;;;5062348;28;19920;-74
2022/07/21 09:33:45;;;;;;;;;;;37.30;37.70;;;;;;5058858;28;19990;-73
2022/07/21 09:36:13;;;;;;;;;;;37.30;38.10;;;;;;5046127;28;19944;-74
2022/07/21 09:38:41;;;;;;;;;;;36.90;40.60;;;;;;5059966;28;19923;-72
2022/07/21 09:41:08;;;;;;;;;;;36.50;37.60;;;;;;5045850;28;20567;-72
2022/07/21 09:43:41;;;;;;;;;;;36.30;38.80;;;;;;5042407;28;19912;-72
2022/07/21 09:46:29;;;;;;;;;;;36.30;39.20;;;;;;5055641;28;20427;-72
2022/07/21 09:49:00;;;;;;;;;;;36.50;38.50;;;;;;5058501;28;20368;-72
2022/07/21 09:51:29;;;;;;;;;;;35.80;40.40;;;;;;5052590;28;20477;-72
2022/07/21 09:53:58;;;;;;;;;;;35.40;40.80;;;;;;5045922;28;20012;-72
2022/07/21 09:56:24;;;;;;;;;;;35.30;44.70;;;;;;5052040;28;19932;-72
2022/07/21 09:58:51;;;;;;;;;;;36.20;42.10;;;;;;5050748;28;19927;-72
2022/07/21 10:01:17;;;;;;;;;;;35.50;40.90;;;;;;5052434;28;19981;-72
2022/07/21 10:03:44;;;;;;;;;;;36.40;40.70;;;;;;5057750;28;19921;-72
2022/07/21 10:06:10;;;;;;;;;;;36.20;40.20;;;;;;5039824;28;20331;-72
2022/07/21 10:08:36;;;;;;;;;;;36.10;42.50;;;;;;5042465;28;19923;-72
2022/07/21 10:11:02;;;;;;;;;;;35.40;41.30;;;;;;5045019;28;20021;-72
2022/07/21 10:13:28;;;;;;;;;;;36.00;41.70;;;;;;5067424;28;20011;-72
2022/07/21 10:15:54;;;;;;;;;;;36.10;43.60;;;;;;5044443;28;19931;-72
2022/07/21 10:18:22;;;;;;;;;;;36.20;39.40;;;;;;5049823;28;20290;-72
2022/07/21 10:20:50;;;;;;;;;;;36.60;41.90;;;;;;5043107;28;20318;-72
2022/07/21 10:23:27;;;;;;;;;;;36.60;43.20;;;;;;5065601;28;19916;-72
2022/07/21 10:25:53;;;;;;;;;;;36.20;40.40;;;;;;5047347;28;20293;-71
2022/07/21 10:28:23;;;;;;;;;;;35.80;43.10;;;;;;5055750;28;20371;-71
2022/07/21 10:30:50;;;;;;;;;;;35.80;41.20;;;;;;5045017;28;19924;-72
2022/07/21 10:33:17;;;;;;;;;;;35.90;44.80;;;;;;5051133;28;19916;-71
2022/07/21 10:35:44;;;;;;;;;;;36.20;44.70;;;;;;5053815;28;19931;-71
2022/07/21 10:38:24;;;;;;;;;;;37.20;41.20;;;;;;5053114;28;19920;-72
2022/07/21 10:40:50;;;;;;;;;;;37.00;38.10;;;;;;5058574;28;19960;-71
2022/07/21 10:43:16;;;;;;;;;;;36.10;38.90;;;;;;5063797;28;19955;-71
2022/07/21 10:45:45;;;;;;;;;;;34.90;41.90;;;;;;5049964;28;19928;-71
2022/07/21 10:48:29;;;;;;;;;;;33.60;46.10;;;;;;5050136;28;19939;-71
2022/07/21 10:50:57;;;;;;;;;;;33.60;48.20;;;;;;5051390;28;20006;-71
2022/07/21 10:53:23;;;;;;;;;;;33.90;44.00;;;;;;5065009;28;19956;-72
2022/07/21 10:55:50;;;;;;;;;;;33.70;46.60;;;;;;5059315;28;19964;-71
2022/07/21 10:58:15;;;;;;;;;;;33.80;46.40;;;;;;5053546;28;19927;-72
2022/07/21 11:00:54;;;;;;;;;;;34.00;47.20;;;;;;5053156;28;19920;-72
2022/07/21 11:03:22;;;;;;;;;;;33.50;43.60;;;;;;5052365;28;19912;-72
2022/07/21 11:06:06;;;;;;;;;;;33.50;44.70;;;;;;5043007;28;20342;-71
2022/07/21 11:08:32;;;;;;;;;;;33.00;47.30;;;;;;5046071;28;20321;-72
2022/07/21 11:11:07;;;;;;;;;;;33.00;47.20;;;;;;5059511;28;20464;-72
2022/07/21 11:13:52;;;;;;;;;;;34.40;46.70;;;;;;5067796;28;19920;-72
2022/07/21 11:16:18;;;;;;;;;;;34.80;46.60;;;;;;5062344;28;19947;-72
2022/07/21 11:18:43;;;;;;;;;;;35.10;43.00;;;;;;5049518;28;20260;-72
2022/07/21 11:21:11;;;;;;;;;;;33.90;43.90;;;;;;4359456;28;10000430;-72
2022/07/21 11:23:36;;;;;;;;;;;32.20;48.70;;;;;;5059978;28;19931;-72
2022/07/21 11:26:02;;;;;;;;;;;30.60;52.10;;;;;;5048650;28;19925;-72
2022/07/21 11:28:27;;;;;;;;;;;30.00;54.30;;;;;;5057200;28;19940;-72
2022/07/21 11:31:12;;;;;;;;;;;29.30;56.10;;;;;;5029310;28;20373;-72
2022/07/21 11:33:38;;;;;;;;;;;28.80;62.90;;;;;;5036011;28;19923;-72
2022/07/21 11:36:04;;;;;;;;;;;28.30;63.80;;;;;;5049789;28;19931;-72
2022/07/21 11:38:31;;;;;;;;;;;27.90;71.30;;;;;;5045499;28;19925;-72
2022/07/21 11:41:32;;;;;;;;;;;27.80;72.60;;;;;;5057887;28;20003;-71
2022/07/21 11:43:57;;;;;;;;;;;27.70;68.50;;;;;;4976247;28;19925;-72
2022/07/21 11:46:23;;;;;;;;;;;27.50;71.90;;;;;;5036514;28;19916;-71
2022/07/21 11:49:00;;;;;;;;;;;27.30;71.00;;;;;;5049925;28;20517;-72
2022/07/21 11:51:25;;;;;;;;;;;26.80;73.60;;;;;;5052070;28;20510;-72
2022/07/21 11:53:51;;;;;;;;;;;26.80;88.70;;;;;;5039208;28;19917;-72
2022/07/21 11:56:16;;;;;;;;;;;26.90;86.30;;;;;;5041139;28;19935;-72
2022/07/21 11:58:43;;;;;;;;;;;27.10;79.20;;;;;;5048785;28;19928;-72
2022/07/21 12:01:09;;;;;;;;;;;27.00;82.00;;;;;;5056546;28;19916;-72
2022/07/21 12:03:45;;;;;;;;;;;27.40;78.70;;;;;;5046190;28;19951;-73
2022/07/21 12:06:12;;;;;;;;;;;28.30;71.90;;;;;;5045444;28;19941;-72
2022/07/21 12:08:38;;;;;;;;;;;29.60;79.70;;;;;;5054133;28;19923;-72
2022/07/21 12:11:07;;;;;;;;;;;30.40;83.40;;;;;;5051099;28;19916;-72
2022/07/21 12:13:55;;;;;;;;;;;31.20;57.70;;;;;;5052093;28;20274;-72
2022/07/21 12:16:21;;;;;;;;;;;31.60;63.50;;;;;;5054352;28;20823;-72
2022/07/21 12:18:46;;;;;;;;;;;31.80;59.00;;;;;;5036875;28;19916;-72
2022/07/21 12:21:12;;;;;;;;;;;31.60;61.90;;;;;;5053564;28;20250;-72
2022/07/21 12:23:37;;;;;;;;;;;32.00;60.10;;;;;;5051559;28;19970;-72
2022/07/21 12:26:03;;;;;;;;;;;32.30;59.70;;;;;;5054209;28;20471;-72
2022/07/21 12:28:47;;;;;;;;;;;32.40;52.70;;;;;;5058710;28;19916;-72
2022/07/21 12:31:16;;;;;;;;;;;32.70;59.10;;;;;;5047643;28;20408;-72
2022/07/21 12:33:42;;;;;;;;;;;32.60;56.00;;;;;;5047465;28;19920;-73
2022/07/21 12:36:09;;;;;;;;;;;32.50;52.00;;;;;;5041151;28;19925;-72
2022/07/21 12:38:38;;;;;;;;;;;32.40;56.90;;;;;;5046054;28;19917;-72
2022/07/21 12:41:04;;;;;;;;;;;32.10;52.90;;;;;;5052549;28;19977;-72
2022/07/21 12:43:29;;;;;;;;;;;31.70;50.90;;;;;;5043638;28;20006;-72
2022/07/21 12:45:56;;;;;;;;;;;31.10;53.10;;;;;;5044885;28;20400;-72
2022/07/21 12:48:29;;;;;;;;;;;30.60;54.10;;;;;;5042193;28;19921;-72
2022/07/21 12:51:01;;;;;;;;;;;29.80;56.60;;;;;;5039983;28;19962;-72
2022/07/21 12:53:27;;;;;;;;;;;29.30;60.30;;;;;;5046258;28;20335;-72
2022/07/21 12:55:52;;;;;;;;;;;28.70;60.40;;;;;;5045802;28;19934;-72
2022/07/21 12:58:18;;;;;;;;;;;28.30;65.40;;;;;;5045861;28;20558;-72
2022/07/21 13:00:43;;;;;;;;;;;27.90;67.10;;;;;;5055039;28;19920;-72
2022/07/21 13:03:09;;;;;;;;;;;27.60;75.40;;;;;;5050993;28;19912;-72
2022/07/21 13:05:34;;;;;;;;;;;27.40;75.40;;;;;;5051490;28;20445;-72
2022/07/21 13:08:00;;;;;;;;;;;27.10;80.80;;;;;;5068077;28;19916;-74
2022/07/21 13:10:26;;;;;;;;;;;26.70;85.90;;;;;;5042945;22;20723;-72
2022/07/21 13:12:51;;;;;;;;;;;26.60;87.50;;;;;;5031007;28;20533;-73
2022/07/21 13:15:17;;;;;;;;;;;26.40;84.10;;;;;;5041091;28;19925;-73
2022/07/21 13:17:42;;;;;;;;;;;26.00;92.80;;;;;;5043826;28;20001;-73
2022/07/21 13:20:09;;;;;;;;;;;25.80;95.50;;;;;;5050686;28;19916;-73
2022/07/21 13:22:34;;;;;;;;;;;25.50;97.80;;;;;;5034729;28;20482;-72
2022/07/21 13:25:00;;;;;;;;;;;25.30;99.50;;;;;;5046040;28;19921;-72
2022/07/21 13:27:25;;;;;;;;;;;25.20;99.90;;;;;;5037454;28;19920;-73
2022/07/21 13:29:51;;;;;;;;;;;25.00;99.90;;;;;;5036203;28;20330;-73
2022/07/21 13:32:17;;;;;;;;;;;24.80;99.90;;;;;;5036103;28;20417;-73
2022/07/21 13:34:42;;;;;;;;;;;24.70;99.90;;;;;;5031269;28;20001;-72
2022/07/21 13:37:11;;;;;;;;;;;24.50;99.90;;;;;;5030813;28;20384;-73
2022/07/21 13:39:39;;;;;;;;;;;24.40;99.90;;;;;;5031953;28;20398;-73
2022/07/21 13:42:06;;;;;;;;;;;24.20;99.90;;;;;;5033283;28;19921;-72
2022/07/21 13:44:32;;;;;;;;;;;24.10;99.90;;;;;;5040910;28;20477;-72
2022/07/21 13:46:58;;;;;;;;;;;24.10;99.90;;;;;;5044793;28;19913;-72
2022/07/21 13:49:23;;;;;;;;;;;24.10;99.90;;;;;;5025387;28;20320;-73
2022/07/21 13:51:49;;;;;;;;;;;24.00;99.90;;;;;;5036686;28;20394;-73
2022/07/21 13:54:15;;;;;;;;;;;24.00;99.90;;;;;;5034357;28;19967;-74
2022/07/21 13:56:40;;;;;;;;;;;24.00;99.90;;;;;;5032841;28;19932;-71
2022/07/21 13:59:06;;;;;;;;;;;24.00;99.90;;;;;;5024609;28;19963;-72
2022/07/21 14:01:31;;;;;;;;;;;24.10;99.90;;;;;;5037638;28;19923;-72
2022/07/21 14:03:57;;;;;;;;;;;24.30;99.90;;;;;;5041899;28;19959;-72
2022/07/21 14:06:23;;;;;;;;;;;24.50;99.90;;;;;;5041599;28;19924;-72
2022/07/21 14:08:48;;;;;;;;;;;24.60;99.90;;;;;;5035563;28;19925;-72
2022/07/21 14:11:14;;;;;;;;;;;24.90;99.90;;;;;;5033098;28;20303;-72
2022/07/21 14:13:40;;;;;;;;;;;25.00;99.90;;;;;;5028950;28;19917;-72
2022/07/21 14:16:06;;;;;;;;;;;25.10;98.40;;;;;;5028003;28;19936;-72
2022/07/21 14:18:32;;;;;;;;;;;25.30;99.90;;;;;;5034235;28;19924;-72